Time;durP1;ratioP1;P1;durP2;ratioP2;P2;SDS_P1;SDS_P2;PMS_P1;PMS_P2;Temp;Humidity;BMP_temperature;BMP_pressure;BME280_temperature;BME280_humidity;BME280_pressure;Samples;Min_cycle;Max_cycle;Signal;HPM_P1;HPM_P2
2021/09/11 00:02:10;;;;;;;12.75;10.63;;;;;;;;;;5067871;28;20693;-67
2021/09/11 00:04:36;;;;;;;14.82;10.45;;;;;;;;;;5073829;28;20049;-66
2021/09/11 00:07:03;;;;;;;14.80;10.48;;;;;;;;;;5073402;28;20587;-68
2021/09/11 00:09:29;;;;;;;13.10;10.18;;;;;;;;;;5073373;28;20432;-67
2021/09/11 00:11:56;;;;;;;11.32;9.55;;;;;;;;;;5073473;28;20052;-67
2021/09/11 00:14:22;;;;;;;14.98;11.77;;;;;;;;;;5073195;28;20482;-66
2021/09/11 00:16:49;;;;;;;16.13;11.52;;;;;;;;;;5072945;28;20059;-68
2021/09/11 00:19:16;;;;;;;14.80;10.60;;;;;;;;;;5073539;28;20688;-66
2021/09/11 00:21:43;;;;;;;13.52;10.10;;;;;;;;;;5071910;28;20048;-69
2021/09/11 00:24:09;;;;;;;13.95;11.45;;;;;;;;;;5066061;28;20048;-68
2021/09/11 00:26:36;;;;;;;14.25;10.48;;;;;;;;;;5052126;28;20075;-69
2021/09/11 00:29:02;;;;;;;17.33;12.63;;;;;;;;;;5052057;28;20052;-69
2021/09/11 00:31:28;;;;;;;14.90;12.00;;;;;;;;;;5052017;28;20056;-67
2021/09/11 00:33:55;;;;;;;15.25;10.43;;;;;;;;;;5051642;28;20135;-68
2021/09/11 00:36:23;;;;;;;15.05;12.25;;;;;;;;;;5070236;28;20127;-67
2021/09/11 00:38:49;;;;;;;14.00;11.05;;;;;;;;;;5071702;28;20315;-68
2021/09/11 00:41:16;;;;;;;11.13;9.93;;;;;;;;;;5072057;28;20048;-68
2021/09/11 00:43:45;;;;;;;14.48;11.18;;;;;;;;;;5071565;28;20052;-66
2021/09/11 00:46:11;;;;;;;13.50;10.82;;;;;;;;;;5071982;28;20075;-67
2021/09/11 00:48:38;;;;;;;17.23;12.43;;;;;;;;;;5071265;28;20469;-67
2021/09/11 00:51:04;;;;;;;16.42;12.88;;;;;;;;;;5071598;28;20051;-68
2021/09/11 00:53:32;;;;;;;15.35;11.65;;;;;;;;;;5071877;28;20071;-67
2021/09/11 00:55:59;;;;;;;15.85;11.20;;;;;;;;;;5071400;28;20052;-71
2021/09/11 00:58:26;;;;;;;15.65;11.38;;;;;;;;;;5070016;28;20044;-67
2021/09/11 01:00:52;;;;;;;16.50;11.95;;;;;;;;;;5070545;28;20040;-67
2021/09/11 01:03:18;;;;;;;14.50;11.40;;;;;;;;;;5070546;28;20044;-68
2021/09/11 01:05:45;;;;;;;19.60;12.70;;;;;;;;;;5071872;28;20045;-67
2021/09/11 01:08:12;;;;;;;16.08;12.10;;;;;;;;;;5072108;28;20048;-68
2021/09/11 01:10:40;;;;;;;15.73;11.15;;;;;;;;;;5072106;28;20049;-68
2021/09/11 01:13:09;;;;;;;16.35;12.60;;;;;;;;;;5072149;28;20044;-67
2021/09/11 01:15:37;;;;;;;16.48;12.40;;;;;;;;;;5071919;28;20049;-68
2021/09/11 01:18:04;;;;;;;16.67;12.23;;;;;;;;;;5071924;28;20485;-69
2021/09/11 01:20:32;;;;;;;16.25;12.60;;;;;;;;;;5072104;28;20055;-67
2021/09/11 01:22:58;;;;;;;14.23;11.43;;;;;;;;;;5071752;28;20052;-68
2021/09/11 01:25:26;;;;;;;13.35;11.20;;;;;;;;;;5072032;28;20076;-69
2021/09/11 01:27:53;;;;;;;16.40;12.05;;;;;;;;;;5071981;28;20056;-69
2021/09/11 01:30:22;;;;;;;15.73;11.18;;;;;;;;;;5071676;28;20422;-67
2021/09/11 01:32:49;;;;;;;16.13;11.75;;;;;;;;;;5071379;28;20075;-68
2021/09/11 01:35:15;;;;;;;17.02;12.43;;;;;;;;;;5071705;28;20056;-68
2021/09/11 01:37:42;;;;;;;18.05;12.05;;;;;;;;;;5071917;28;20052;-69
2021/09/11 01:40:10;;;;;;;15.65;12.30;;;;;;;;;;5071455;28;20055;-68
2021/09/11 01:42:38;;;;;;;15.90;12.52;;;;;;;;;;5071141;28;20052;-68
2021/09/11 01:45:07;;;;;;;16.83;11.00;;;;;;;;;;5071153;28;20383;-69
2021/09/11 01:47:34;;;;;;;16.15;13.02;;;;;;;;;;5071728;28;20056;-69
2021/09/11 01:50:00;;;;;;;17.35;13.05;;;;;;;;;;5072029;28;20063;-68
2021/09/11 01:52:27;;;;;;;17.42;13.13;;;;;;;;;;5071615;28;20053;-68
2021/09/11 01:54:53;;;;;;;17.90;12.60;;;;;;;;;;5071722;28;20044;-67
2021/09/11 01:57:20;;;;;;;15.05;11.57;;;;;;;;;;5071457;28;20063;-67
2021/09/11 01:59:47;;;;;;;16.55;12.32;;;;;;;;;;5060101;28;20501;-69
2021/09/11 02:02:14;;;;;;;16.05;10.70;;;;;;;;;;5062714;28;20045;-68
2021/09/11 02:04:40;;;;;;;14.27;10.52;;;;;;;;;;5051960;28;20048;-68
2021/09/11 02:07:07;;;;;;;12.90;11.18;;;;;;;;;;5050532;28;20049;-68
2021/09/11 02:09:35;;;;;;;14.20;11.60;;;;;;;;;;5050991;28;20049;-69
2021/09/11 02:12:01;;;;;;;16.80;12.57;;;;;;;;;;5067788;28;20055;-69
2021/09/11 02:14:28;;;;;;;15.20;12.00;;;;;;;;;;5073562;28;20052;-68
2021/09/11 02:16:56;;;;;;;16.27;12.02;;;;;;;;;;5074086;28;20055;-68
2021/09/11 02:19:22;;;;;;;14.95;12.07;;;;;;;;;;5074117;28;20064;-69
2021/09/11 02:21:49;;;;;;;15.57;11.43;;;;;;;;;;5067684;28;20392;-68
2021/09/11 02:24:15;;;;;;;13.95;10.40;;;;;;;;;;5059371;28;20059;-67
2021/09/11 02:26:42;;;;;;;14.48;11.05;;;;;;;;;;5070488;28;20064;-69
2021/09/11 02:29:08;;;;;;;14.30;10.45;;;;;;;;;;5053821;28;20136;-68
2021/09/11 02:31:35;;;;;;;14.63;12.13;;;;;;;;;;5056607;28;20060;-67
2021/09/11 02:34:02;;;;;;;14.35;10.52;;;;;;;;;;5073978;28;20044;-68
2021/09/11 02:36:29;;;;;;;13.75;10.55;;;;;;;;;;5072477;28;20474;-69
2021/09/11 02:38:55;;;;;;;15.25;11.43;;;;;;;;;;5054331;28;20053;-68
2021/09/11 02:41:22;;;;;;;15.85;12.30;;;;;;;;;;5053689;28;20206;-69
2021/09/11 02:43:48;;;;;;;14.30;11.40;;;;;;;;;;5060896;28;20048;-69
2021/09/11 02:46:15;;;;;;;14.85;11.60;;;;;;;;;;5073657;28;20462;-69
2021/09/11 02:48:41;;;;;;;13.38;10.02;;;;;;;;;;5073710;28;20139;-67
2021/09/11 02:51:09;;;;;;;12.65;10.55;;;;;;;;;;5073800;28;20060;-69
2021/09/11 02:53:36;;;;;;;14.73;10.88;;;;;;;;;;5073342;28;20071;-69
2021/09/11 02:56:02;;;;;;;12.27;10.25;;;;;;;;;;5073153;28;20049;-68
2021/09/11 02:58:28;;;;;;;12.32;9.90;;;;;;;;;;5056744;28;20052;-69
2021/09/11 03:00:55;;;;;;;14.05;11.07;;;;;;;;;;5064235;28;20049;-68
2021/09/11 03:03:21;;;;;;;12.55;9.45;;;;;;;;;;5033918;28;1123145;-67
2021/09/11 03:05:48;;;;;;;10.98;8.73;;;;;;;;;;5073944;28;20036;-69
2021/09/11 03:08:15;;;;;;;11.77;8.82;;;;;;;;;;5073809;28;20383;-69
2021/09/11 03:10:42;;;;;;;11.93;8.77;;;;;;;;;;5073747;28;20048;-69
2021/09/11 03:13:08;;;;;;;10.60;8.95;;;;;;;;;;5070864;28;20468;-67
2021/09/11 03:15:35;;;;;;;9.75;7.90;;;;;;;;;;5073922;28;20044;-69
2021/09/11 03:18:01;;;;;;;9.63;7.88;;;;;;;;;;5071238;28;20055;-68
2021/09/11 03:20:28;;;;;;;9.35;7.32;;;;;;;;;;5074107;28;20483;-69
2021/09/11 03:22:54;;;;;;;11.02;7.82;;;;;;;;;;5073986;28;20059;-68
2021/09/11 03:25:22;;;;;;;9.65;6.97;;;;;;;;;;5073833;28;20055;-67
2021/09/11 03:27:48;;;;;;;11.75;7.97;;;;;;;;;;5068021;28;20057;-68
2021/09/11 03:30:15;;;;;;;8.27;6.72;;;;;;;;;;5054152;28;20055;-67
2021/09/11 03:32:41;;;;;;;9.77;6.38;;;;;;;;;;5064495;28;20045;-67
2021/09/11 03:35:08;;;;;;;10.57;6.85;;;;;;;;;;5069587;28;20483;-68
2021/09/11 03:37:35;;;;;;;8.32;6.55;;;;;;;;;;5069458;28;20049;-68
2021/09/11 03:40:01;;;;;;;8.05;7.10;;;;;;;;;;5055116;28;20049;-69
2021/09/11 03:42:29;;;;;;;10.80;6.55;;;;;;;;;;5056571;28;20055;-69
2021/09/11 03:44:55;;;;;;;11.98;7.85;;;;;;;;;;5073229;28;20510;-68
2021/09/11 03:47:22;;;;;;;8.95;6.47;;;;;;;;;;5071271;28;20056;-69
2021/09/11 03:49:48;;;;;;;9.00;6.63;;;;;;;;;;5053688;28;20406;-68
2021/09/11 03:52:15;;;;;;;8.40;6.63;;;;;;;;;;5055161;28;20072;-69
2021/09/11 03:54:41;;;;;;;10.40;6.50;;;;;;;;;;5073812;28;20071;-68
2021/09/11 03:57:07;;;;;;;9.18;7.45;;;;;;;;;;5072919;28;20040;-68
2021/09/11 03:59:35;;;;;;;10.57;7.20;;;;;;;;;;5057829;28;20478;-69
2021/09/11 04:02:02;;;;;;;8.65;6.78;;;;;;;;;;5066118;28;20052;-68
2021/09/11 04:04:28;;;;;;;7.43;6.20;;;;;;;;;;5069873;28;20067;-69
2021/09/11 04:06:54;;;;;;;9.93;6.38;;;;;;;;;;5073233;28;20051;-68
2021/09/11 04:09:21;;;;;;;11.55;7.60;;;;;;;;;;5054265;28;20475;-69
2021/09/11 04:11:47;;;;;;;10.85;6.45;;;;;;;;;;5071443;28;20060;-69
2021/09/11 04:14:14;;;;;;;10.55;7.22;;;;;;;;;;5073146;28;20410;-69
2021/09/11 04:16:41;;;;;;;8.85;5.75;;;;;;;;;;5073405;28;20048;-67
2021/09/11 04:19:08;;;;;;;10.05;7.40;;;;;;;;;;5072848;28;20404;-69
2021/09/11 04:21:34;;;;;;;10.13;7.20;;;;;;;;;;5068553;28;20060;-67
2021/09/11 04:24:04;;;;;;;7.97;6.47;;;;;;;;;;5053257;28;20056;-67
2021/09/11 04:26:30;;;;;;;8.35;6.95;;;;;;;;;;5052788;28;20562;-69
2021/09/11 04:28:57;;;;;;;8.63;7.13;;;;;;;;;;5063147;28;20048;-67
2021/09/11 04:31:23;;;;;;;9.32;7.18;;;;;;;;;;5070006;28;20505;-67
2021/09/11 04:33:51;;;;;;;9.57;7.45;;;;;;;;;;5052866;28;20049;-68
2021/09/11 04:36:17;;;;;;;9.88;7.28;;;;;;;;;;5052574;28;20843;-68
2021/09/11 04:38:44;;;;;;;8.80;6.55;;;;;;;;;;5072646;28;20059;-68
2021/09/11 04:41:10;;;;;;;9.45;7.70;;;;;;;;;;5072740;28;20063;-68
2021/09/11 04:43:36;;;;;;;9.80;7.85;;;;;;;;;;5059303;28;20056;-69
2021/09/11 04:46:03;;;;;;;8.60;6.82;;;;;;;;;;5052308;28;20056;-69
2021/09/11 04:48:29;;;;;;;14.77;7.25;;;;;;;;;;5072085;28;20063;-69
2021/09/11 04:50:57;;;;;;;8.88;6.70;;;;;;;;;;5072353;28;20367;-68
2021/09/11 04:53:24;;;;;;;14.38;6.57;;;;;;;;;;5072043;28;20056;-68
2021/09/11 04:55:50;;;;;;;8.50;7.15;;;;;;;;;;5072581;28;20435;-69
2021/09/11 04:58:16;;;;;;;9.90;7.03;;;;;;;;;;5055296;28;20052;-67
2021/09/11 05:00:43;;;;;;;11.00;7.05;;;;;;;;;;5070482;28;20495;-67
2021/09/11 05:03:09;;;;;;;9.77;6.88;;;;;;;;;;5056739;28;20057;-68
2021/09/11 05:05:36;;;;;;;9.93;6.57;;;;;;;;;;5060471;28;20052;-69
2021/09/11 05:08:04;;;;;;;8.73;6.80;;;;;;;;;;5061142;28;20049;-69
2021/09/11 05:10:30;;;;;;;9.57;7.13;;;;;;;;;;5071947;28;20052;-68
2021/09/11 05:12:57;;;;;;;9.57;6.88;;;;;;;;;;5064562;28;20479;-69
2021/09/11 05:15:25;;;;;;;8.70;6.10;;;;;;;;;;5051938;28;20053;-68
2021/09/11 05:17:51;;;;;;;11.27;6.97;;;;;;;;;;5052120;28;20098;-68
2021/09/11 05:20:18;;;;;;;10.00;6.78;;;;;;;;;;5052026;28;20060;-67
2021/09/11 05:22:44;;;;;;;10.50;7.70;;;;;;;;;;5063023;28;20052;-69
2021/09/11 05:25:13;;;;;;;10.80;7.55;;;;;;;;;;5060145;28;20053;-69
2021/09/11 05:27:40;;;;;;;9.75;7.65;;;;;;;;;;5071232;28;20051;-69
2021/09/11 05:30:08;;;;;;;8.95;6.88;;;;;;;;;;5069444;28;20053;-69
2021/09/11 05:32:34;;;;;;;8.68;7.60;;;;;;;;;;5071933;28;20071;-70
2021/09/11 05:35:01;;;;;;;10.52;6.43;;;;;;;;;;5062561;28;20049;-69
2021/09/11 05:37:27;;;;;;;9.05;6.25;;;;;;;;;;5051816;28;20045;-68
2021/09/11 05:39:54;;;;;;;9.88;7.30;;;;;;;;;;5052568;28;20060;-67
2021/09/11 05:42:21;;;;;;;10.75;7.88;;;;;;;;;;5051186;28;20075;-68
2021/09/11 05:44:48;;;;;;;9.98;6.78;;;;;;;;;;5051299;28;20052;-69
2021/09/11 05:47:14;;;;;;;10.77;7.18;;;;;;;;;;5052413;28;20048;-68
2021/09/11 05:49:41;;;;;;;11.48;6.80;;;;;;;;;;5071757;28;20056;-69
2021/09/11 05:52:07;;;;;;;8.80;6.43;;;;;;;;;;5071315;28;20052;-68
2021/09/11 05:54:34;;;;;;;9.10;6.57;;;;;;;;;;5069585;28;20052;-68
2021/09/11 05:57:00;;;;;;;8.52;6.70;;;;;;;;;;5063769;28;20837;-68
2021/09/11 05:59:28;;;;;;;9.65;6.25;;;;;;;;;;5059810;28;20045;-69
2021/09/11 06:01:54;;;;;;;9.57;6.15;;;;;;;;;;5064467;28;20044;-69
2021/09/11 06:04:21;;;;;;;9.90;6.68;;;;;;;;;;5065826;28;20102;-68
2021/09/11 06:06:47;;;;;;;9.35;6.60;;;;;;;;;;5068054;28;20463;-67
2021/09/11 06:09:14;;;;;;;8.43;6.90;;;;;;;;;;5069199;28;20056;-69
2021/09/11 06:11:40;;;;;;;10.35;8.00;;;;;;;;;;5071326;28;20529;-69
2021/09/11 06:14:06;;;;;;;11.27;6.88;;;;;;;;;;5054269;28;20053;-67
2021/09/11 06:16:34;;;;;;;9.13;7.03;;;;;;;;;;5051563;28;20474;-67
2021/09/11 06:19:01;;;;;;;9.52;7.60;;;;;;;;;;5067356;28;20048;-68
2021/09/11 06:21:27;;;;;;;9.52;7.15;;;;;;;;;;5069656;28;20045;-68
2021/09/11 06:23:53;;;;;;;8.18;6.63;;;;;;;;;;5070715;28;20053;-68
2021/09/11 06:26:20;;;;;;;11.57;7.05;;;;;;;;;;5071459;28;20044;-67
2021/09/11 06:28:46;;;;;;;8.82;6.85;;;;;;;;;;5056335;28;20049;-67
2021/09/11 06:31:13;;;;;;;11.32;7.00;;;;;;;;;;5056872;28;20049;-69
2021/09/11 06:33:40;;;;;;;9.02;6.82;;;;;;;;;;5070873;28;20137;-69
2021/09/11 06:36:11;;;;;;;11.63;7.60;;;;;;;;;;5054812;28;20060;-68
2021/09/11 06:38:38;;;;;;;9.98;7.43;;;;;;;;;;5064086;28;20415;-68
2021/09/11 06:41:04;;;;;;;9.23;7.30;;;;;;;;;;5070636;28;20083;-68
2021/09/11 06:43:31;;;;;;;11.13;8.00;;;;;;;;;;5070696;28;20062;-68
2021/09/11 06:45:57;;;;;;;9.93;7.65;;;;;;;;;;5071278;28;20446;-67
2021/09/11 06:48:24;;;;;;;8.77;7.15;;;;;;;;;;5059825;28;20049;-68
2021/09/11 06:50:51;;;;;;;10.68;7.97;;;;;;;;;;5051091;28;20492;-67
2021/09/11 06:53:18;;;;;;;9.30;6.97;;;;;;;;;;5051667;28;20056;-68
2021/09/11 06:55:44;;;;;;;9.90;7.07;;;;;;;;;;5056441;28;20083;-69
2021/09/11 06:58:11;;;;;;;8.95;7.35;;;;;;;;;;5060509;28;20044;-68
2021/09/11 07:00:37;;;;;;;9.65;6.63;;;;;;;;;;5060155;28;20418;-68
2021/09/11 07:03:03;;;;;;;7.82;5.88;;;;;;;;;;5076015;28;20043;-67
2021/09/11 07:05:30;;;;;;;8.00;6.03;;;;;;;;;;5073128;28;20047;-67
2021/09/11 07:07:58;;;;;;;6.95;5.72;;;;;;;;;;5072304;28;20045;-69
2021/09/11 07:10:24;;;;;;;7.43;5.63;;;;;;;;;;5074204;28;20402;-69
2021/09/11 07:12:51;;;;;;;8.93;5.88;;;;;;;;;;5072950;28;20048;-69
2021/09/11 07:15:17;;;;;;;8.48;6.45;;;;;;;;;;5073716;28;20045;-68
2021/09/11 07:17:44;;;;;;;8.07;6.38;;;;;;;;;;5074287;28;20053;-69
2021/09/11 07:20:11;;;;;;;16.35;6.25;;;;;;;;;;5074259;28;20553;-69
2021/09/11 07:22:38;;;;;;;8.27;6.10;;;;;;;;;;5073261;28;20623;-69
2021/09/11 07:25:06;;;;;;;8.02;5.85;;;;;;;;;;5072526;28;20052;-69
2021/09/11 07:27:33;;;;;;;7.80;5.95;;;;;;;;;;5065116;28;20041;-68
2021/09/11 07:29:59;;;;;;;7.63;5.07;;;;;;;;;;5069280;28;20509;-69
2021/09/11 07:32:27;;;;;;;8.77;5.18;;;;;;;;;;5067972;28;20057;-69
2021/09/11 07:34:53;;;;;;;7.50;5.70;;;;;;;;;;5054094;28;20080;-68
2021/09/11 07:37:19;;;;;;;7.18;5.13;;;;;;;;;;5056119;28;20052;-68
2021/09/11 07:39:47;;;;;;;6.75;5.00;;;;;;;;;;5071879;28;20063;-69
2021/09/11 07:42:15;;;;;;;7.35;5.18;;;;;;;;;;5071644;28;20072;-67
2021/09/11 07:44:41;;;;;;;6.15;4.78;;;;;;;;;;5053754;28;20044;-67
2021/09/11 07:47:08;;;;;;;6.45;4.95;;;;;;;;;;5054013;28;20064;-68
2021/09/11 07:49:34;;;;;;;7.20;5.30;;;;;;;;;;5073566;28;20051;-68
2021/09/11 07:52:01;;;;;;;7.45;5.03;;;;;;;;;;5073579;28;20052;-68
2021/09/11 07:54:27;;;;;;;9.45;5.28;;;;;;;;;;5062358;28;20498;-69
2021/09/11 07:56:54;;;;;;;6.88;4.95;;;;;;;;;;5073605;28;20052;-69
2021/09/11 07:59:21;;;;;;;6.68;5.03;;;;;;;;;;5065919;28;20558;-68
2021/09/11 08:01:48;;;;;;;7.28;4.95;;;;;;;;;;5072065;28;20045;-68
2021/09/11 08:04:14;;;;;;;7.25;5.20;;;;;;;;;;5066648;28;20040;-69
2021/09/11 08:06:41;;;;;;;8.15;5.32;;;;;;;;;;5067052;28;20053;-69
2021/09/11 08:09:07;;;;;;;7.75;6.10;;;;;;;;;;5070422;28;20066;-71
2021/09/11 08:11:34;;;;;;;6.95;5.68;;;;;;;;;;5070878;28;20051;-69
2021/09/11 08:14:00;;;;;;;6.45;4.88;;;;;;;;;;5071099;28;20049;-69
2021/09/11 08:16:28;;;;;;;8.35;6.60;;;;;;;;;;5072808;28;20052;-69
2021/09/11 08:18:54;;;;;;;8.25;5.38;;;;;;;;;;5068916;28;20045;-69
2021/09/11 08:21:21;;;;;;;7.30;5.72;;;;;;;;;;5073074;28;20048;-69
2021/09/11 08:23:48;;;;;;;8.18;6.20;;;;;;;;;;5064718;28;20052;-69
2021/09/11 08:26:14;;;;;;;8.07;5.40;;;;;;;;;;5071926;28;20143;-69
2021/09/11 08:28:40;;;;;;;6.63;5.38;;;;;;;;;;5060256;28;20052;-68
2021/09/11 08:31:07;;;;;;;8.13;6.25;;;;;;;;;;5053001;28;20071;-69
2021/09/11 08:33:35;;;;;;;9.02;5.18;;;;;;;;;;5064563;28;20515;-68
2021/09/11 08:36:01;;;;;;;7.68;5.47;;;;;;;;;;5072509;28;20052;-68
2021/09/11 08:38:28;;;;;;;8.98;6.47;;;;;;;;;;5071000;28;20036;-68
2021/09/11 08:40:54;;;;;;;7.63;6.20;;;;;;;;;;5072899;28;20048;-68
2021/09/11 08:43:21;;;;;;;8.40;6.32;;;;;;;;;;5076564;28;20410;-69
2021/09/11 08:45:47;;;;;;;7.85;5.97;;;;;;;;;;5072460;28;20051;-69
2021/09/11 08:48:14;;;;;;;8.27;6.53;;;;;;;;;;5073296;28;20505;-69
2021/09/11 08:50:41;;;;;;;6.82;5.40;;;;;;;;;;5071067;28;20052;-70
2021/09/11 08:53:10;;;;;;;8.32;5.82;;;;;;;;;;5067630;28;20044;-68
2021/09/11 08:55:37;;;;;;;8.23;6.13;;;;;;;;;;5065844;28;20048;-68
2021/09/11 08:58:04;;;;;;;6.90;5.47;;;;;;;;;;5073526;28;20049;-68
2021/09/11 09:00:45;;;;;;;7.68;6.22;;;;;;;;;;5069862;28;20154;-69
2021/09/11 09:03:33;;;;;;;8.35;6.78;;;;;;;;;;5069019;28;20044;-68
2021/09/11 09:06:19;;;;;;;6.80;5.68;;;;;;;;;;5065832;28;20048;-67
2021/09/11 09:08:48;;;;;;;8.30;6.03;;;;;;;;;;5066823;28;20052;-67
2021/09/11 09:11:20;;;;;;;6.88;5.35;;;;;;;;;;5063588;28;20055;-68
2021/09/11 09:13:54;;;;;;;8.15;5.60;;;;;;;;;;5071890;28;20057;-69
2021/09/11 09:16:20;;;;;;;9.50;6.43;;;;;;;;;;5073903;28;20052;-69
2021/09/11 09:18:47;;;;;;;7.70;5.70;;;;;;;;;;5056728;28;20060;-70
2021/09/11 09:21:20;;;;;;;8.27;6.07;;;;;;;;;;5053392;28;20057;-69
2021/09/11 09:23:48;;;;;;;6.88;5.10;;;;;;;;;;5069836;28;20080;-71
2021/09/11 09:26:14;;;;;;;7.28;5.60;;;;;;;;;;5074427;28;20044;-70
2021/09/11 09:28:40;;;;;;;6.93;6.07;;;;;;;;;;5071219;28;20461;-69
2021/09/11 09:31:09;;;;;;;8.10;5.53;;;;;;;;;;5072696;28;20052;-71
2021/09/11 09:33:38;;;;;;;6.18;4.50;;;;;;;;;;5071262;28;20487;-72
2021/09/11 09:36:05;;;;;;;7.05;4.93;;;;;;;;;;5070563;28;20052;-71
2021/09/11 09:38:32;;;;;;;7.18;4.85;;;;;;;;;;5070556;28;20071;-68
2021/09/11 09:40:59;;;;;;;7.90;4.70;;;;;;;;;;5072417;28;20415;-68
2021/09/11 09:43:30;;;;;;;5.85;4.60;;;;;;;;;;5071012;28;20103;-70
2021/09/11 09:46:04;;;;;;;6.03;4.57;;;;;;;;;;5070762;28;20061;-70
2021/09/11 09:48:35;;;;;;;6.57;3.78;;;;;;;;;;5069368;28;20136;-71
2021/09/11 09:51:05;;;;;;;6.68;3.63;;;;;;;;;;5070684;28;20055;-69
2021/09/11 09:53:33;;;;;;;5.90;3.70;;;;;;;;;;5067384;28;20048;-70
2021/09/11 09:56:00;;;;;;;5.70;3.75;;;;;;;;;;5069656;28;20494;-69
2021/09/11 09:58:27;;;;;;;5.70;4.70;;;;;;;;;;5067531;28;20048;-71
2021/09/11 10:00:53;;;;;;;4.90;3.97;;;;;;;;;;5071165;28;20063;-69
2021/09/11 10:03:20;;;;;;;7.30;3.83;;;;;;;;;;5067806;28;20060;-70
2021/09/11 10:05:48;;;;;;;5.18;4.03;;;;;;;;;;5068698;28;20064;-66
2021/09/11 10:08:15;;;;;;;5.53;4.32;;;;;;;;;;5069256;28;20044;-69
2021/09/11 10:10:46;;;;;;;6.28;4.70;;;;;;;;;;5069260;28;20041;-70
2021/09/11 10:13:15;;;;;;;7.15;4.65;;;;;;;;;;5066234;28;20048;-69
2021/09/11 10:15:53;;;;;;;8.55;4.63;;;;;;;;;;5071068;28;20041;-70
2021/09/11 10:18:41;;;;;;;10.30;4.97;;;;;;;;;;5069729;28;20122;-70
2021/09/11 10:21:41;;;;;;;5.43;3.95;;;;;;;;;;5070995;28;20049;-70
2021/09/11 10:24:27;;;;;;;6.03;3.97;;;;;;;;;;5069258;28;20053;-70
2021/09/11 10:26:55;;;;;;;5.55;3.47;;;;;;;;;;5072478;28;20491;-70
2021/09/11 10:29:44;;;;;;;5.05;3.53;;;;;;;;;;5068838;28;20041;-69
2021/09/11 10:32:14;;;;;;;6.80;4.20;;;;;;;;;;5068687;28;20395;-69
2021/09/11 10:34:50;;;;;;;7.47;3.80;;;;;;;;;;5072821;28;20167;-69
2021/09/11 10:37:25;;;;;;;5.60;4.10;;;;;;;;;;5076332;28;20048;-69
2021/09/11 10:40:13;;;;;;;6.15;3.95;;;;;;;;;;5056658;28;20598;-70
2021/09/11 10:43:18;;;;;;;6.97;4.03;;;;;;;;;;5058505;28;20475;-68
2021/09/11 10:45:57;;;;;;;4.75;3.58;;;;;;;;;;5055933;28;20053;-69
2021/09/11 10:48:43;;;;;;;5.80;3.90;;;;;;;;;;5074613;28;20045;-70
2021/09/11 10:51:29;;;;;;;5.68;3.85;;;;;;;;;;5073862;28;20051;-68
2021/09/11 10:53:57;;;;;;;6.95;4.50;;;;;;;;;;5071257;28;20071;-70
2021/09/11 10:56:26;;;;;;;6.25;5.10;;;;;;;;;;5076030;28;20049;-70
2021/09/11 10:59:30;;;;;;;5.22;3.92;;;;;;;;;;5072932;28;20044;-70
2021/09/11 11:02:09;;;;;;;6.07;4.35;;;;;;;;;;5057480;28;20052;-69
2021/09/11 11:04:38;;;;;;;5.35;4.20;;;;;;;;;;5070946;28;20056;-68
2021/09/11 11:07:06;;;;;;;7.43;4.03;;;;;;;;;;5065567;28;20079;-69
2021/09/11 11:09:35;;;;;;;5.18;4.05;;;;;;;;;;5073899;28;20052;-68
2021/09/11 11:12:01;;;;;;;5.43;3.72;;;;;;;;;;5060497;28;20040;-70
2021/09/11 11:14:31;;;;;;;5.53;4.15;;;;;;;;;;5073861;28;20055;-71
2021/09/11 11:16:57;;;;;;;5.03;3.80;;;;;;;;;;5076118;28;20208;-70
2021/09/11 11:19:26;;;;;;;4.60;3.50;;;;;;;;;;5068370;28;20392;-69
2021/09/11 11:21:59;;;;;;;5.93;3.95;;;;;;;;;;5055636;28;20548;-69
2021/09/11 11:24:26;;;;;;;5.10;3.30;;;;;;;;;;5064165;28;20053;-69
2021/09/11 11:26:52;;;;;;;4.78;3.17;;;;;;;;;;5054834;28;20064;-70
2021/09/11 11:29:20;;;;;;;5.75;4.15;;;;;;;;;;5062412;28;20052;-69
2021/09/11 11:31:47;;;;;;;5.60;3.85;;;;;;;;;;5066909;28;20134;-70
2021/09/11 11:34:14;;;;;;;4.25;3.25;;;;;;;;;;5071624;28;20048;-70
2021/09/11 11:36:49;;;;;;;4.63;3.50;;;;;;;;;;5073431;28;20045;-70
2021/09/11 11:39:19;;;;;;;5.65;3.78;;;;;;;;;;5075394;28;20045;-71
2021/09/11 11:41:55;;;;;;;4.40;3.13;;;;;;;;;;5074612;28;20057;-70
2021/09/11 11:44:22;;;;;;;5.32;4.03;;;;;;;;;;5072323;28;20047;-69
2021/09/11 11:46:52;;;;;;;4.20;3.15;;;;;;;;;;5074211;28;20060;-70
2021/09/11 11:49:19;;;;;;;4.28;3.03;;;;;;;;;;5073257;28;20058;-70
2021/09/11 11:51:53;;;;;;;4.75;3.03;;;;;;;;;;5072995;28;20685;-68
2021/09/11 11:54:19;;;;;;;3.92;2.65;;;;;;;;;;5072315;28;20048;-68
2021/09/11 11:56:47;;;;;;;3.85;2.67;;;;;;;;;;5073654;28;20474;-69
2021/09/11 11:59:21;;;;;;;6.15;2.67;;;;;;;;;;5070325;28;20052;-69
2021/09/11 12:01:48;;;;;;;4.40;2.50;;;;;;;;;;5055261;28;20064;-69
2021/09/11 12:04:15;;;;;;;3.38;2.30;;;;;;;;;;5061653;28;20044;-69
2021/09/11 12:06:48;;;;;;;5.82;3.13;;;;;;;;;;5068620;28;20125;-69
2021/09/11 12:09:16;;;;;;;3.17;2.20;;;;;;;;;;5073085;28;20473;-69
2021/09/11 12:11:43;;;;;;;2.97;1.85;;;;;;;;;;5059139;28;20145;-69
2021/09/11 12:14:10;;;;;;;3.78;1.90;;;;;;;;;;5068059;28;20130;-69
2021/09/11 12:16:37;;;;;;;2.60;1.65;;;;;;;;;;5073344;28;20052;-69
2021/09/11 12:19:11;;;;;;;2.45;1.70;;;;;;;;;;5073123;28;20071;-71
2021/09/11 12:21:37;;;;;;;3.05;2.05;;;;;;;;;;5073403;28;20053;-70
2021/09/11 12:24:04;;;;;;;3.10;2.00;;;;;;;;;;5069504;28;20048;-70
2021/09/11 12:26:33;;;;;;;2.80;1.92;;;;;;;;;;5060133;28;20060;-70
2021/09/11 12:29:07;;;;;;;2.45;1.80;;;;;;;;;;5052726;28;20380;-70
2021/09/11 12:31:39;;;;;;;3.22;1.90;;;;;;;;;;5057439;28;20052;-68
2021/09/11 12:34:08;;;;;;;2.35;1.80;;;;;;;;;;5072078;28;20126;-68
2021/09/11 12:36:36;;;;;;;2.85;1.77;;;;;;;;;;5073018;28;20104;-69
2021/09/11 12:39:08;;;;;;;2.47;1.65;;;;;;;;;;5072373;28;20048;-69
2021/09/11 12:41:38;;;;;;;2.90;2.05;;;;;;;;;;5072586;28;20059;-69
2021/09/11 12:44:05;;;;;;;3.20;1.65;;;;;;;;;;5070211;28;20044;-69
2021/09/11 12:46:36;;;;;;;3.60;1.85;;;;;;;;;;5054652;28;20061;-69
2021/09/11 12:49:05;;;;;;;5.18;2.25;;;;;;;;;;5072767;28;20044;-69
2021/09/11 12:51:32;;;;;;;4.88;1.60;;;;;;;;;;5057056;28;20048;-69
2021/09/11 12:53:58;;;;;;;3.80;2.15;;;;;;;;;;5064714;28;20049;-70
2021/09/11 12:56:25;;;;;;;2.95;1.83;;;;;;;;;;5071918;28;20047;-69
2021/09/11 12:58:54;;;;;;;3.78;1.70;;;;;;;;;;5072484;28;20052;-69
2021/09/11 13:01:21;;;;;;;7.20;1.92;;;;;;;;;;5070730;28;20048;-69
2021/09/11 13:03:47;;;;;;;4.75;2.25;;;;;;;;;;5056963;28;20057;-69
2021/09/11 13:06:15;;;;;;;2.67;1.67;;;;;;;;;;5061458;28;20045;-69
2021/09/11 13:08:43;;;;;;;4.43;1.63;;;;;;;;;;5062514;28;20136;-69
2021/09/11 13:11:09;;;;;;;2.80;1.70;;;;;;;;;;5072393;28;20064;-69
2021/09/11 13:13:36;;;;;;;2.45;1.60;;;;;;;;;;5061821;28;20110;-69
2021/09/11 13:16:04;;;;;;;2.80;1.80;;;;;;;;;;5052220;28;20057;-69
2021/09/11 13:18:31;;;;;;;2.63;1.60;;;;;;;;;;5052598;28;20053;-69
2021/09/11 13:21:00;;;;;;;2.25;1.63;;;;;;;;;;5053368;28;20053;-70
2021/09/11 13:23:26;;;;;;;2.72;1.80;;;;;;;;;;5055460;28;20407;-69
2021/09/11 13:25:53;;;;;;;3.60;2.00;;;;;;;;;;5059737;28;20044;-69
2021/09/11 13:28:19;;;;;;;2.97;1.70;;;;;;;;;;5071888;28;20055;-69
2021/09/11 13:30:46;;;;;;;3.75;1.58;;;;;;;;;;5052299;28;20049;-70
2021/09/11 13:33:14;;;;;;;2.50;1.63;;;;;;;;;;5069235;28;20044;-69
2021/09/11 13:35:40;;;;;;;3.03;1.60;;;;;;;;;;5071547;28;20049;-70
2021/09/11 13:38:07;;;;;;;1.33;1.13;;;;;;;;;;5071945;28;20052;-70
2021/09/11 13:40:33;;;;;;;1.55;1.02;;;;;;;;;;5071947;28;20414;-71
2021/09/11 13:43:00;;;;;;;2.17;1.45;;;;;;;;;;5070151;28;20695;-69
2021/09/11 13:45:26;;;;;;;3.13;1.80;;;;;;;;;;5071715;28;20059;-69
2021/09/11 13:47:53;;;;;;;1.88;1.35;;;;;;;;;;5067761;28;20055;-70
2021/09/11 13:50:20;;;;;;;2.97;1.40;;;;;;;;;;5066297;28;20048;-70
2021/09/11 13:52:47;;;;;;;1.70;1.10;;;;;;;;;;5071057;28;20049;-69
2021/09/11 13:55:14;;;;;;;1.75;1.02;;;;;;;;;;5069430;28;20632;-69
2021/09/11 13:57:40;;;;;;;1.95;1.10;;;;;;;;;;5059498;28;20041;-69
2021/09/11 14:00:08;;;;;;;1.73;1.00;;;;;;;;;;5070687;28;20036;-70
2021/09/11 14:02:34;;;;;;;1.98;0.95;;;;;;;;;;5066245;28;20056;-68
2021/09/11 14:05:01;;;;;;;2.03;1.33;;;;;;;;;;5071046;28;20075;-69
2021/09/11 14:07:29;;;;;;;2.17;1.60;;;;;;;;;;5068053;28;20495;-68
2021/09/11 14:09:56;;;;;;;3.65;1.60;;;;;;;;;;5069892;28;20127;-68
2021/09/11 14:12:22;;;;;;;3.05;1.50;;;;;;;;;;5073935;28;20048;-69
2021/09/11 14:14:48;;;;;;;3.28;1.50;;;;;;;;;;5055303;28;20052;-69
2021/09/11 14:17:15;;;;;;;2.30;1.25;;;;;;;;;;5055466;28;20392;-69
2021/09/11 14:19:41;;;;;;;4.25;1.60;;;;;;;;;;5055306;28;20056;-70
2021/09/11 14:22:08;;;;;;;2.17;1.48;;;;;;;;;;5059439;28;20045;-69
2021/09/11 14:24:36;;;;;;;2.78;1.55;;;;;;;;;;5056889;28;20596;-69
2021/09/11 14:27:02;;;;;;;2.67;1.35;;;;;;;;;;5055556;28;20476;-70
2021/09/11 14:29:29;;;;;;;3.38;1.60;;;;;;;;;;5062492;28;20036;-69
2021/09/11 14:31:55;;;;;;;2.70;1.67;;;;;;;;;;5073964;28;20053;-69
2021/09/11 14:34:22;;;;;;;2.20;1.33;;;;;;;;;;5057740;28;20049;-69
2021/09/11 14:36:48;;;;;;;2.97;1.42;;;;;;;;;;5054935;28;20049;-69
2021/09/11 14:39:15;;;;;;;3.50;1.63;;;;;;;;;;5055142;28;20058;-69
2021/09/11 14:41:42;;;;;;;2.67;1.60;;;;;;;;;;5054661;28;20144;-69